sensor_id;sensor_type;location;lat;lon;timestamp;P1;durP1;ratioP1;P2;durP2;ratioP2
7027;SDS011;3555;53.248;10.336;2022-09-09T00:02:18;16.40;;;13.80;;
7027;SDS011;3555;53.248;10.336;2022-09-09T00:04:48;17.13;;;14.10;;
7027;SDS011;3555;53.248;10.336;2022-09-09T00:07:28;17.85;;;14.23;;
7027;SDS011;3555;53.248;10.336;2022-09-09T00:10:09;16.73;;;13.88;;
7027;SDS011;3555;53.248;10.336;2022-09-09T00:12:47;15.73;;;13.52;;
7027;SDS011;3555;53.248;10.336;2022-09-09T00:15:21;19.73;;;14.13;;
7027;SDS011;3555;53.248;10.336;2022-09-09T00:17:52;13.50;;;11.75;;
7027;SDS011;3555;53.248;10.336;2022-09-09T00:20:28;15.32;;;12.95;;
7027;SDS011;3555;53.248;10.336;2022-09-09T00:23:00;16.02;;;12.80;;
7027;SDS011;3555;53.248;10.336;2022-09-09T00:25:33;14.93;;;12.90;;
7027;SDS011;3555;53.248;10.336;2022-09-09T00:28:04;16.75;;;12.68;;
7027;SDS011;3555;53.248;10.336;2022-09-09T00:30:43;14.38;;;12.55;;
7027;SDS011;3555;53.248;10.336;2022-09-09T00:33:13;14.48;;;12.05;;
7027;SDS011;3555;53.248;10.336;2022-09-09T00:35:45;14.20;;;12.70;;
7027;SDS011;3555;53.248;10.336;2022-09-09T00:38:15;14.30;;;12.57;;
7027;SDS011;3555;53.248;10.336;2022-09-09T00:40:45;15.25;;;13.65;;
7027;SDS011;3555;53.248;10.336;2022-09-09T00:43:23;14.20;;;12.38;;
7027;SDS011;3555;53.248;10.336;2022-09-09T00:45:57;14.35;;;12.40;;
7027;SDS011;3555;53.248;10.336;2022-09-09T00:48:41;12.15;;;10.73;;
7027;SDS011;3555;53.248;10.336;2022-09-09T00:51:20;13.45;;;11.68;;
7027;SDS011;3555;53.248;10.336;2022-09-09T00:54:01;14.80;;;12.60;;
7027;SDS011;3555;53.248;10.336;2022-09-09T00:56:43;15.88;;;12.48;;
7027;SDS011;3555;53.248;10.336;2022-09-09T00:59:22;12.40;;;10.55;;
7027;SDS011;3555;53.248;10.336;2022-09-09T01:01:53;15.52;;;12.05;;
7027;SDS011;3555;53.248;10.336;2022-09-09T01:04:22;14.32;;;11.38;;
7027;SDS011;3555;53.248;10.336;2022-09-09T01:06:58;12.85;;;10.80;;
7027;SDS011;3555;53.248;10.336;2022-09-09T01:09:37;11.98;;;10.65;;
7027;SDS011;3555;53.248;10.336;2022-09-09T01:12:09;16.52;;;11.85;;
7027;SDS011;3555;53.248;10.336;2022-09-09T01:14:42;13.95;;;9.63;;
7027;SDS011;3555;53.248;10.336;2022-09-09T01:17:14;10.80;;;9.43;;
7027;SDS011;3555;53.248;10.336;2022-09-09T01:19:47;13.57;;;11.60;;
7027;SDS011;3555;53.248;10.336;2022-09-09T01:22:28;17.92;;;11.32;;
7027;SDS011;3555;53.248;10.336;2022-09-09T01:27:57;12.45;;;10.20;;
7027;SDS011;3555;53.248;10.336;2022-09-09T01:30:26;10.73;;;9.57;;
7027;SDS011;3555;53.248;10.336;2022-09-09T01:32:55;12.25;;;10.93;;
7027;SDS011;3555;53.248;10.336;2022-09-09T01:38:15;11.70;;;10.50;;
7027;SDS011;3555;53.248;10.336;2022-09-09T01:40:43;15.18;;;11.80;;
7027;SDS011;3555;53.248;10.336;2022-09-09T01:43:12;12.18;;;10.40;;
7027;SDS011;3555;53.248;10.336;2022-09-09T01:45:39;11.98;;;10.60;;
7027;SDS011;3555;53.248;10.336;2022-09-09T01:48:08;10.75;;;9.40;;
7027;SDS011;3555;53.248;10.336;2022-09-09T01:50:35;9.63;;;8.65;;
7027;SDS011;3555;53.248;10.336;2022-09-09T01:53:02;11.45;;;10.18;;
7027;SDS011;3555;53.248;10.336;2022-09-09T01:55:30;10.18;;;9.10;;
7027;SDS011;3555;53.248;10.336;2022-09-09T01:58:03;12.38;;;11.07;;
7027;SDS011;3555;53.248;10.336;2022-09-09T02:00:41;14.32;;;11.50;;
7027;SDS011;3555;53.248;10.336;2022-09-09T02:03:15;14.30;;;11.02;;
7027;SDS011;3555;53.248;10.336;2022-09-09T02:05:51;12.30;;;9.90;;
7027;SDS011;3555;53.248;10.336;2022-09-09T02:08:23;10.60;;;9.50;;
7027;SDS011;3555;53.248;10.336;2022-09-09T02:10:55;10.55;;;8.98;;
7027;SDS011;3555;53.248;10.336;2022-09-09T02:13:25;9.18;;;8.20;;
7027;SDS011;3555;53.248;10.336;2022-09-09T02:15:55;9.93;;;8.82;;
7027;SDS011;3555;53.248;10.336;2022-09-09T02:18:26;10.15;;;9.10;;
7027;SDS011;3555;53.248;10.336;2022-09-09T02:20:56;10.10;;;9.07;;
7027;SDS011;3555;53.248;10.336;2022-09-09T02:23:24;12.02;;;9.25;;
7027;SDS011;3555;53.248;10.336;2022-09-09T02:25:52;12.10;;;9.98;;
7027;SDS011;3555;53.248;10.336;2022-09-09T02:28:21;12.15;;;9.95;;
7027;SDS011;3555;53.248;10.336;2022-09-09T02:30:51;8.98;;;8.00;;
7027;SDS011;3555;53.248;10.336;2022-09-09T02:33:21;9.05;;;8.15;;
7027;SDS011;3555;53.248;10.336;2022-09-09T02:35:50;8.73;;;7.13;;
7027;SDS011;3555;53.248;10.336;2022-09-09T02:38:18;8.30;;;7.15;;
7027;SDS011;3555;53.248;10.336;2022-09-09T02:40:47;7.63;;;6.88;;
7027;SDS011;3555;53.248;10.336;2022-09-09T02:43:14;9.85;;;8.20;;
7027;SDS011;3555;53.248;10.336;2022-09-09T02:45:44;7.93;;;6.53;;
7027;SDS011;3555;53.248;10.336;2022-09-09T02:48:23;9.13;;;8.10;;
7027;SDS011;3555;53.248;10.336;2022-09-09T02:50:57;10.57;;;7.88;;
7027;SDS011;3555;53.248;10.336;2022-09-09T02:53:34;7.38;;;6.65;;
7027;SDS011;3555;53.248;10.336;2022-09-09T02:56:08;7.97;;;7.18;;
7027;SDS011;3555;53.248;10.336;2022-09-09T02:58:40;8.93;;;7.68;;
7027;SDS011;3555;53.248;10.336;2022-09-09T03:01:08;6.50;;;5.90;;
7027;SDS011;3555;53.248;10.336;2022-09-09T03:03:36;6.60;;;5.93;;
7027;SDS011;3555;53.248;10.336;2022-09-09T03:06:03;9.57;;;6.00;;
7027;SDS011;3555;53.248;10.336;2022-09-09T03:08:30;6.13;;;5.53;;
7027;SDS011;3555;53.248;10.336;2022-09-09T03:10:58;7.60;;;6.85;;
7027;SDS011;3555;53.248;10.336;2022-09-09T03:13:26;6.63;;;5.78;;
7027;SDS011;3555;53.248;10.336;2022-09-09T03:15:53;6.68;;;6.00;;
7027;SDS011;3555;53.248;10.336;2022-09-09T03:18:20;9.10;;;5.60;;
7027;SDS011;3555;53.248;10.336;2022-09-09T03:20:48;5.72;;;5.13;;
7027;SDS011;3555;53.248;10.336;2022-09-09T03:23:16;7.15;;;6.45;;
7027;SDS011;3555;53.248;10.336;2022-09-09T03:25:46;7.10;;;6.40;;
7027;SDS011;3555;53.248;10.336;2022-09-09T03:28:13;6.90;;;6.20;;
7027;SDS011;3555;53.248;10.336;2022-09-09T03:30:40;6.55;;;5.70;;
7027;SDS011;3555;53.248;10.336;2022-09-09T03:33:07;6.22;;;5.63;;
7027;SDS011;3555;53.248;10.336;2022-09-09T03:35:33;7.90;;;5.97;;
7027;SDS011;3555;53.248;10.336;2022-09-09T03:38:02;7.57;;;6.78;;
7027;SDS011;3555;53.248;10.336;2022-09-09T03:40:29;7.70;;;6.90;;
7027;SDS011;3555;53.248;10.336;2022-09-09T03:42:56;7.95;;;6.35;;
7027;SDS011;3555;53.248;10.336;2022-09-09T03:45:22;9.35;;;6.65;;
7027;SDS011;3555;53.248;10.336;2022-09-09T03:47:49;8.85;;;6.25;;
7027;SDS011;3555;53.248;10.336;2022-09-09T03:50:16;6.47;;;5.88;;
7027;SDS011;3555;53.248;10.336;2022-09-09T03:52:43;9.45;;;6.07;;
7027;SDS011;3555;53.248;10.336;2022-09-09T03:55:12;10.35;;;6.60;;
7027;SDS011;3555;53.248;10.336;2022-09-09T03:57:39;7.82;;;7.13;;
7027;SDS011;3555;53.248;10.336;2022-09-09T04:00:06;7.88;;;6.97;;
7027;SDS011;3555;53.248;10.336;2022-09-09T04:02:34;8.63;;;7.82;;
7027;SDS011;3555;53.248;10.336;2022-09-09T04:05:01;12.10;;;7.40;;
7027;SDS011;3555;53.248;10.336;2022-09-09T04:07:28;9.07;;;6.75;;
7027;SDS011;3555;53.248;10.336;2022-09-09T04:09:55;7.88;;;7.07;;
7027;SDS011;3555;53.248;10.336;2022-09-09T04:12:23;9.63;;;7.38;;
7027;SDS011;3555;53.248;10.336;2022-09-09T04:14:50;12.65;;;7.97;;
7027;SDS011;3555;53.248;10.336;2022-09-09T04:17:16;8.77;;;7.17;;
7027;SDS011;3555;53.248;10.336;2022-09-09T04:19:43;7.55;;;6.75;;
7027;SDS011;3555;53.248;10.336;2022-09-09T04:22:10;8.60;;;7.43;;
7027;SDS011;3555;53.248;10.336;2022-09-09T04:24:37;7.90;;;7.10;;
7027;SDS011;3555;53.248;10.336;2022-09-09T04:27:04;8.15;;;6.75;;
7027;SDS011;3555;53.248;10.336;2022-09-09T04:29:32;9.52;;;6.95;;
7027;SDS011;3555;53.248;10.336;2022-09-09T04:31:59;10.15;;;7.70;;
7027;SDS011;3555;53.248;10.336;2022-09-09T04:34:26;9.82;;;7.18;;
7027;SDS011;3555;53.248;10.336;2022-09-09T04:36:53;8.18;;;6.75;;
7027;SDS011;3555;53.248;10.336;2022-09-09T04:39:21;12.90;;;7.25;;
7027;SDS011;3555;53.248;10.336;2022-09-09T04:41:48;7.27;;;6.57;;
7027;SDS011;3555;53.248;10.336;2022-09-09T04:44:15;8.52;;;7.05;;
7027;SDS011;3555;53.248;10.336;2022-09-09T04:46:43;7.63;;;6.43;;
7027;SDS011;3555;53.248;10.336;2022-09-09T04:49:10;7.55;;;6.75;;
7027;SDS011;3555;53.248;10.336;2022-09-09T04:51:37;7.78;;;6.88;;
7027;SDS011;3555;53.248;10.336;2022-09-09T04:54:04;7.60;;;6.05;;
7027;SDS011;3555;53.248;10.336;2022-09-09T04:56:30;7.55;;;6.75;;
7027;SDS011;3555;53.248;10.336;2022-09-09T04:58:57;6.97;;;6.28;;
7027;SDS011;3555;53.248;10.336;2022-09-09T05:01:24;8.20;;;5.78;;
7027;SDS011;3555;53.248;10.336;2022-09-09T05:03:53;8.17;;;6.83;;
7027;SDS011;3555;53.248;10.336;2022-09-09T05:06:20;9.80;;;6.82;;
7027;SDS011;3555;53.248;10.336;2022-09-09T05:08:48;7.65;;;6.38;;
7027;SDS011;3555;53.248;10.336;2022-09-09T05:11:15;9.38;;;7.32;;
7027;SDS011;3555;53.248;10.336;2022-09-09T05:13:44;7.65;;;6.15;;
7027;SDS011;3555;53.248;10.336;2022-09-09T05:16:11;6.65;;;5.10;;
7027;SDS011;3555;53.248;10.336;2022-09-09T05:18:38;8.73;;;5.43;;
7027;SDS011;3555;53.248;10.336;2022-09-09T05:21:06;5.87;;;5.00;;
7027;SDS011;3555;53.248;10.336;2022-09-09T05:23:34;6.07;;;5.40;;
7027;SDS011;3555;53.248;10.336;2022-09-09T05:26:01;12.93;;;5.45;;
7027;SDS011;3555;53.248;10.336;2022-09-09T05:28:28;5.90;;;4.57;;
7027;SDS011;3555;53.248;10.336;2022-09-09T05:30:56;6.70;;;4.57;;
7027;SDS011;3555;53.248;10.336;2022-09-09T05:33:25;4.93;;;4.30;;
7027;SDS011;3555;53.248;10.336;2022-09-09T05:35:56;4.50;;;4.10;;
7027;SDS011;3555;53.248;10.336;2022-09-09T05:38:25;5.50;;;4.22;;
7027;SDS011;3555;53.248;10.336;2022-09-09T05:40:52;5.72;;;3.97;;
7027;SDS011;3555;53.248;10.336;2022-09-09T05:43:20;4.18;;;3.60;;
7027;SDS011;3555;53.248;10.336;2022-09-09T05:45:47;6.22;;;4.25;;
7027;SDS011;3555;53.248;10.336;2022-09-09T05:48:14;4.88;;;3.45;;
7027;SDS011;3555;53.248;10.336;2022-09-09T05:50:41;4.35;;;3.20;;
7027;SDS011;3555;53.248;10.336;2022-09-09T05:53:10;5.88;;;3.10;;
7027;SDS011;3555;53.248;10.336;2022-09-09T05:55:38;7.32;;;3.45;;
7027;SDS011;3555;53.248;10.336;2022-09-09T05:58:05;6.33;;;3.33;;
7027;SDS011;3555;53.248;10.336;2022-09-09T06:00:32;6.70;;;3.30;;
7027;SDS011;3555;53.248;10.336;2022-09-09T06:02:59;4.45;;;3.13;;
7027;SDS011;3555;53.248;10.336;2022-09-09T06:05:25;5.43;;;3.40;;
7027;SDS011;3555;53.248;10.336;2022-09-09T06:07:53;3.38;;;2.55;;
7027;SDS011;3555;53.248;10.336;2022-09-09T06:10:20;5.82;;;2.90;;
7027;SDS011;3555;53.248;10.336;2022-09-09T06:12:48;2.85;;;2.53;;
7027;SDS011;3555;53.248;10.336;2022-09-09T06:15:18;3.42;;;2.72;;
7027;SDS011;3555;53.248;10.336;2022-09-09T06:17:45;4.13;;;2.90;;
7027;SDS011;3555;53.248;10.336;2022-09-09T06:20:12;5.47;;;2.40;;
7027;SDS011;3555;53.248;10.336;2022-09-09T06:22:39;4.20;;;2.47;;
7027;SDS011;3555;53.248;10.336;2022-09-09T06:25:07;2.90;;;2.15;;
7027;SDS011;3555;53.248;10.336;2022-09-09T06:27:35;6.43;;;2.60;;
7027;SDS011;3555;53.248;10.336;2022-09-09T06:30:03;2.45;;;2.13;;
7027;SDS011;3555;53.248;10.336;2022-09-09T06:32:31;3.13;;;2.10;;
7027;SDS011;3555;53.248;10.336;2022-09-09T06:34:59;2.92;;;1.88;;
7027;SDS011;3555;53.248;10.336;2022-09-09T06:37:27;4.07;;;2.00;;
7027;SDS011;3555;53.248;10.336;2022-09-09T06:39:54;2.15;;;1.85;;
7027;SDS011;3555;53.248;10.336;2022-09-09T06:42:21;2.63;;;2.10;;
7027;SDS011;3555;53.248;10.336;2022-09-09T06:44:48;2.92;;;2.25;;
7027;SDS011;3555;53.248;10.336;2022-09-09T06:47:16;5.07;;;2.72;;
7027;SDS011;3555;53.248;10.336;2022-09-09T06:49:43;6.43;;;2.30;;
7027;SDS011;3555;53.248;10.336;2022-09-09T06:52:09;3.35;;;2.50;;
7027;SDS011;3555;53.248;10.336;2022-09-09T06:54:37;3.65;;;2.67;;
7027;SDS011;3555;53.248;10.336;2022-09-09T06:57:03;3.75;;;2.45;;
7027;SDS011;3555;53.248;10.336;2022-09-09T06:59:32;7.53;;;2.63;;
7027;SDS011;3555;53.248;10.336;2022-09-09T07:01:59;2.88;;;2.55;;
7027;SDS011;3555;53.248;10.336;2022-09-09T07:04:27;4.00;;;2.30;;
7027;SDS011;3555;53.248;10.336;2022-09-09T07:06:54;3.58;;;2.53;;
7027;SDS011;3555;53.248;10.336;2022-09-09T07:09:21;5.60;;;2.53;;
7027;SDS011;3555;53.248;10.336;2022-09-09T07:11:49;3.15;;;2.20;;
7027;SDS011;3555;53.248;10.336;2022-09-09T07:14:18;3.70;;;2.28;;
7027;SDS011;3555;53.248;10.336;2022-09-09T07:16:46;2.83;;;2.40;;
7027;SDS011;3555;53.248;10.336;2022-09-09T07:19:13;4.65;;;2.95;;
7027;SDS011;3555;53.248;10.336;2022-09-09T07:21:42;5.45;;;2.58;;
7027;SDS011;3555;53.248;10.336;2022-09-09T07:24:09;3.70;;;2.35;;
7027;SDS011;3555;53.248;10.336;2022-09-09T07:26:37;2.85;;;2.10;;
7027;SDS011;3555;53.248;10.336;2022-09-09T07:29:04;3.47;;;2.28;;
7027;SDS011;3555;53.248;10.336;2022-09-09T07:31:32;3.65;;;2.50;;
7027;SDS011;3555;53.248;10.336;2022-09-09T07:34:00;3.60;;;2.08;;
7027;SDS011;3555;53.248;10.336;2022-09-09T07:36:28;2.22;;;1.80;;
7027;SDS011;3555;53.248;10.336;2022-09-09T07:38:59;3.03;;;2.05;;
7027;SDS011;3555;53.248;10.336;2022-09-09T07:41:28;2.53;;;1.83;;
7027;SDS011;3555;53.248;10.336;2022-09-09T07:43:59;3.70;;;2.30;;
7027;SDS011;3555;53.248;10.336;2022-09-09T07:46:29;3.63;;;2.00;;
7027;SDS011;3555;53.248;10.336;2022-09-09T07:48:56;3.45;;;2.05;;
7027;SDS011;3555;53.248;10.336;2022-09-09T07:51:24;3.00;;;1.95;;
7027;SDS011;3555;53.248;10.336;2022-09-09T07:53:53;4.68;;;2.58;;
7027;SDS011;3555;53.248;10.336;2022-09-09T07:56:24;3.35;;;2.30;;
7027;SDS011;3555;53.248;10.336;2022-09-09T07:58:52;8.20;;;2.10;;
7027;SDS011;3555;53.248;10.336;2022-09-09T08:01:21;5.10;;;2.00;;
7027;SDS011;3555;53.248;10.336;2022-09-09T08:03:52;4.55;;;2.38;;
7027;SDS011;3555;53.248;10.336;2022-09-09T08:06:22;4.45;;;1.75;;
7027;SDS011;3555;53.248;10.336;2022-09-09T08:08:50;4.63;;;1.90;;
7027;SDS011;3555;53.248;10.336;2022-09-09T08:11:17;6.88;;;2.05;;
7027;SDS011;3555;53.248;10.336;2022-09-09T08:13:46;5.45;;;2.10;;
7027;SDS011;3555;53.248;10.336;2022-09-09T08:16:14;3.40;;;1.60;;
7027;SDS011;3555;53.248;10.336;2022-09-09T08:18:42;3.05;;;1.50;;
7027;SDS011;3555;53.248;10.336;2022-09-09T08:21:10;3.78;;;1.60;;
7027;SDS011;3555;53.248;10.336;2022-09-09T08:23:39;4.00;;;1.95;;
7027;SDS011;3555;53.248;10.336;2022-09-09T08:26:07;1.98;;;1.60;;
7027;SDS011;3555;53.248;10.336;2022-09-09T08:28:37;2.53;;;1.63;;
7027;SDS011;3555;53.248;10.336;2022-09-09T08:31:06;4.15;;;1.60;;
7027;SDS011;3555;53.248;10.336;2022-09-09T08:33:34;3.90;;;2.00;;
7027;SDS011;3555;53.248;10.336;2022-09-09T08:36:03;5.30;;;1.90;;
7027;SDS011;3555;53.248;10.336;2022-09-09T08:38:30;4.68;;;1.60;;
7027;SDS011;3555;53.248;10.336;2022-09-09T08:40:58;1.98;;;1.38;;
7027;SDS011;3555;53.248;10.336;2022-09-09T08:43:36;3.03;;;1.60;;
7027;SDS011;3555;53.248;10.336;2022-09-09T08:46:04;3.40;;;1.67;;
7027;SDS011;3555;53.248;10.336;2022-09-09T08:48:41;2.95;;;1.55;;
7027;SDS011;3555;53.248;10.336;2022-09-09T08:51:17;3.28;;;1.50;;
7027;SDS011;3555;53.248;10.336;2022-09-09T08:53:46;3.70;;;1.20;;
7027;SDS011;3555;53.248;10.336;2022-09-09T08:56:16;4.47;;;1.67;;
7027;SDS011;3555;53.248;10.336;2022-09-09T08:58:47;3.90;;;1.42;;
7027;SDS011;3555;53.248;10.336;2022-09-09T09:01:20;3.25;;;1.50;;
7027;SDS011;3555;53.248;10.336;2022-09-09T09:04:00;2.67;;;1.50;;
7027;SDS011;3555;53.248;10.336;2022-09-09T09:06:37;4.03;;;1.90;;
7027;SDS011;3555;53.248;10.336;2022-09-09T09:09:14;3.50;;;1.75;;
7027;SDS011;3555;53.248;10.336;2022-09-09T09:11:47;2.70;;;1.20;;
7027;SDS011;3555;53.248;10.336;2022-09-09T09:14:18;5.88;;;1.63;;
7027;SDS011;3555;53.248;10.336;2022-09-09T09:16:51;4.35;;;1.50;;
7027;SDS011;3555;53.248;10.336;2022-09-09T09:19:22;3.63;;;1.40;;
7027;SDS011;3555;53.248;10.336;2022-09-09T09:21:52;4.45;;;1.60;;
7027;SDS011;3555;53.248;10.336;2022-09-09T09:24:25;1.88;;;1.17;;
7027;SDS011;3555;53.248;10.336;2022-09-09T09:26:58;2.33;;;1.17;;
7027;SDS011;3555;53.248;10.336;2022-09-09T09:29:26;2.67;;;1.27;;
7027;SDS011;3555;53.248;10.336;2022-09-09T09:31:55;3.20;;;0.93;;
7027;SDS011;3555;53.248;10.336;2022-09-09T09:34:26;2.88;;;1.48;;
7027;SDS011;3555;53.248;10.336;2022-09-09T09:36:53;5.25;;;1.30;;
7027;SDS011;3555;53.248;10.336;2022-09-09T09:39:23;2.92;;;1.30;;
7027;SDS011;3555;53.248;10.336;2022-09-09T09:41:51;4.63;;;1.50;;
7027;SDS011;3555;53.248;10.336;2022-09-09T09:44:22;2.38;;;1.27;;
7027;SDS011;3555;53.248;10.336;2022-09-09T09:46:51;5.28;;;1.52;;
7027;SDS011;3555;53.248;10.336;2022-09-09T09:49:19;3.58;;;1.48;;
7027;SDS011;3555;53.248;10.336;2022-09-09T09:51:46;4.65;;;1.60;;
7027;SDS011;3555;53.248;10.336;2022-09-09T09:54:14;2.55;;;1.55;;
7027;SDS011;3555;53.248;10.336;2022-09-09T09:56:49;2.67;;;1.40;;
7027;SDS011;3555;53.248;10.336;2022-09-09T09:59:20;4.50;;;1.60;;
7027;SDS011;3555;53.248;10.336;2022-09-09T10:01:48;4.32;;;1.50;;
7027;SDS011;3555;53.248;10.336;2022-09-09T10:04:15;4.05;;;1.42;;
7027;SDS011;3555;53.248;10.336;2022-09-09T10:06:46;3.45;;;1.27;;
7027;SDS011;3555;53.248;10.336;2022-09-09T10:09:21;5.00;;;1.38;;
7027;SDS011;3555;53.248;10.336;2022-09-09T10:11:52;2.75;;;1.20;;
7027;SDS011;3555;53.248;10.336;2022-09-09T10:14:25;4.80;;;1.30;;
7027;SDS011;3555;53.248;10.336;2022-09-09T10:17:04;3.33;;;1.20;;
7027;SDS011;3555;53.248;10.336;2022-09-09T10:19:42;3.72;;;1.20;;
7027;SDS011;3555;53.248;10.336;2022-09-09T10:22:25;4.00;;;1.50;;
7027;SDS011;3555;53.248;10.336;2022-09-09T10:25:00;2.83;;;1.08;;
7027;SDS011;3555;53.248;10.336;2022-09-09T10:27:46;2.25;;;1.02;;
7027;SDS011;3555;53.248;10.336;2022-09-09T10:30:23;3.63;;;1.20;;
7027;SDS011;3555;53.248;10.336;2022-09-09T10:32:56;2.70;;;0.95;;
7027;SDS011;3555;53.248;10.336;2022-09-09T10:35:31;2.55;;;1.10;;
7027;SDS011;3555;53.248;10.336;2022-09-09T10:38:08;2.85;;;1.40;;
7027;SDS011;3555;53.248;10.336;2022-09-09T10:40:40;4.32;;;1.17;;
7027;SDS011;3555;53.248;10.336;2022-09-09T10:43:13;2.58;;;1.20;;
7027;SDS011;3555;53.248;10.336;2022-09-09T10:45:50;2.65;;;1.20;;
7027;SDS011;3555;53.248;10.336;2022-09-09T10:48:28;3.20;;;1.08;;
7027;SDS011;3555;53.248;10.336;2022-09-09T10:51:02;2.42;;;1.15;;
7027;SDS011;3555;53.248;10.336;2022-09-09T10:53:46;3.53;;;1.23;;
7027;SDS011;3555;53.248;10.336;2022-09-09T10:56:20;3.42;;;1.10;;
7027;SDS011;3555;53.248;10.336;2022-09-09T10:58:51;3.05;;;1.00;;
7027;SDS011;3555;53.248;10.336;2022-09-09T11:01:22;3.75;;;1.10;;
7027;SDS011;3555;53.248;10.336;2022-09-09T11:03:52;4.57;;;1.08;;
7027;SDS011;3555;53.248;10.336;2022-09-09T11:06:24;2.75;;;1.13;;
7027;SDS011;3555;53.248;10.336;2022-09-09T11:08:56;5.35;;;1.25;;
7027;SDS011;3555;53.248;10.336;2022-09-09T11:11:27;3.50;;;1.20;;
7027;SDS011;3555;53.248;10.336;2022-09-09T11:13:59;5.80;;;1.45;;
7027;SDS011;3555;53.248;10.336;2022-09-09T11:16:33;4.57;;;1.25;;
7027;SDS011;3555;53.248;10.336;2022-09-09T11:19:09;3.10;;;0.80;;
7027;SDS011;3555;53.248;10.336;2022-09-09T11:21:41;3.97;;;1.17;;
7027;SDS011;3555;53.248;10.336;2022-09-09T11:24:13;3.85;;;1.27;;
7027;SDS011;3555;53.248;10.336;2022-09-09T11:26:48;2.30;;;1.10;;
7027;SDS011;3555;53.248;10.336;2022-09-09T11:32:26;3.17;;;1.20;;
7027;SDS011;3555;53.248;10.336;2022-09-09T11:35:19;8.73;;;1.60;;
7027;SDS011;3555;53.248;10.336;2022-09-09T11:40:45;16.20;;;4.35;;
7027;SDS011;3555;53.248;10.336;2022-09-09T11:43:21;8.48;;;2.13;;
7027;SDS011;3555;53.248;10.336;2022-09-09T11:45:52;2.95;;;1.58;;
7027;SDS011;3555;53.248;10.336;2022-09-09T11:48:22;3.63;;;1.55;;
7027;SDS011;3555;53.248;10.336;2022-09-09T11:50:57;4.50;;;1.33;;
7027;SDS011;3555;53.248;10.336;2022-09-09T11:53:25;4.88;;;1.60;;
7027;SDS011;3555;53.248;10.336;2022-09-09T11:56:10;2.55;;;1.38;;
7027;SDS011;3555;53.248;10.336;2022-09-09T11:58:41;3.70;;;1.60;;
7027;SDS011;3555;53.248;10.336;2022-09-09T12:01:14;3.60;;;1.45;;
7027;SDS011;3555;53.248;10.336;2022-09-09T12:03:43;2.67;;;1.45;;
7027;SDS011;3555;53.248;10.336;2022-09-09T12:06:14;5.95;;;1.27;;
7027;SDS011;3555;53.248;10.336;2022-09-09T12:08:46;3.35;;;1.38;;
7027;SDS011;3555;53.248;10.336;2022-09-09T12:11:25;3.03;;;1.27;;
7027;SDS011;3555;53.248;10.336;2022-09-09T12:13:53;1.75;;;1.33;;
7027;SDS011;3555;53.248;10.336;2022-09-09T12:16:31;4.85;;;1.30;;
7027;SDS011;3555;53.248;10.336;2022-09-09T12:19:03;2.33;;;1.25;;
7027;SDS011;3555;53.248;10.336;2022-09-09T12:21:34;2.05;;;1.35;;
7027;SDS011;3555;53.248;10.336;2022-09-09T12:24:05;3.53;;;1.70;;
7027;SDS011;3555;53.248;10.336;2022-09-09T12:26:37;5.65;;;1.85;;
7027;SDS011;3555;53.248;10.336;2022-09-09T12:29:12;5.20;;;1.40;;
7027;SDS011;3555;53.248;10.336;2022-09-09T12:31:50;4.30;;;1.38;;
7027;SDS011;3555;53.248;10.336;2022-09-09T12:34:25;2.72;;;1.38;;
7027;SDS011;3555;53.248;10.336;2022-09-09T12:37:03;4.47;;;1.70;;
7027;SDS011;3555;53.248;10.336;2022-09-09T12:39:33;5.05;;;2.13;;
7027;SDS011;3555;53.248;10.336;2022-09-09T12:42:15;3.50;;;1.65;;
7027;SDS011;3555;53.248;10.336;2022-09-09T12:44:50;3.90;;;1.65;;
7027;SDS011;3555;53.248;10.336;2022-09-09T12:47:18;5.20;;;1.75;;
7027;SDS011;3555;53.248;10.336;2022-09-09T12:49:47;3.30;;;1.60;;
7027;SDS011;3555;53.248;10.336;2022-09-09T12:52:17;4.10;;;1.75;;
7027;SDS011;3555;53.248;10.336;2022-09-09T12:54:49;5.57;;;1.70;;
7027;SDS011;3555;53.248;10.336;2022-09-09T12:57:18;3.30;;;1.70;;
7027;SDS011;3555;53.248;10.336;2022-09-09T12:59:45;5.57;;;1.45;;
7027;SDS011;3555;53.248;10.336;2022-09-09T13:02:20;2.38;;;1.38;;
7027;SDS011;3555;53.248;10.336;2022-09-09T13:04:48;3.17;;;1.77;;
7027;SDS011;3555;53.248;10.336;2022-09-09T13:07:16;3.72;;;1.73;;
7027;SDS011;3555;53.248;10.336;2022-09-09T13:09:44;4.03;;;1.52;;
7027;SDS011;3555;53.248;10.336;2022-09-09T13:12:13;2.85;;;1.52;;
7027;SDS011;3555;53.248;10.336;2022-09-09T13:14:43;1.80;;;1.10;;
7027;SDS011;3555;53.248;10.336;2022-09-09T13:17:17;1.67;;;1.05;;
7027;SDS011;3555;53.248;10.336;2022-09-09T13:19:47;3.70;;;1.33;;
7027;SDS011;3555;53.248;10.336;2022-09-09T13:22:20;3.83;;;1.40;;
7027;SDS011;3555;53.248;10.336;2022-09-09T13:24:58;3.80;;;1.50;;
7027;SDS011;3555;53.248;10.336;2022-09-09T13:27:29;3.47;;;1.70;;
7027;SDS011;3555;53.248;10.336;2022-09-09T13:30:00;3.60;;;1.25;;
7027;SDS011;3555;53.248;10.336;2022-09-09T13:32:27;3.00;;;1.48;;
7027;SDS011;3555;53.248;10.336;2022-09-09T13:34:56;4.97;;;2.10;;
7027;SDS011;3555;53.248;10.336;2022-09-09T13:37:26;5.25;;;1.27;;
7027;SDS011;3555;53.248;10.336;2022-09-09T13:39:58;2.15;;;1.30;;
7027;SDS011;3555;53.248;10.336;2022-09-09T13:42:25;2.58;;;1.20;;
7027;SDS011;3555;53.248;10.336;2022-09-09T13:44:54;2.88;;;1.40;;
7027;SDS011;3555;53.248;10.336;2022-09-09T13:47:26;3.25;;;1.30;;
7027;SDS011;3555;53.248;10.336;2022-09-09T13:49:56;4.95;;;3.22;;
7027;SDS011;3555;53.248;10.336;2022-09-09T13:52:23;2.88;;;1.67;;
7027;SDS011;3555;53.248;10.336;2022-09-09T13:54:53;2.72;;;1.40;;
7027;SDS011;3555;53.248;10.336;2022-09-09T13:57:21;4.25;;;1.48;;
7027;SDS011;3555;53.248;10.336;2022-09-09T13:59:50;3.63;;;1.50;;
7027;SDS011;3555;53.248;10.336;2022-09-09T14:02:17;2.63;;;1.40;;
7027;SDS011;3555;53.248;10.336;2022-09-09T14:04:47;4.32;;;1.40;;
7027;SDS011;3555;53.248;10.336;2022-09-09T14:07:16;2.63;;;1.20;;
7027;SDS011;3555;53.248;10.336;2022-09-09T14:09:44;3.22;;;1.05;;
7027;SDS011;3555;53.248;10.336;2022-09-09T14:12:14;5.13;;;1.10;;
7027;SDS011;3555;53.248;10.336;2022-09-09T14:14:42;3.88;;;0.90;;
7027;SDS011;3555;53.248;10.336;2022-09-09T14:17:09;2.22;;;0.93;;
7027;SDS011;3555;53.248;10.336;2022-09-09T14:19:35;3.13;;;0.85;;
7027;SDS011;3555;53.248;10.336;2022-09-09T14:22:04;2.63;;;0.90;;
7027;SDS011;3555;53.248;10.336;2022-09-09T14:24:31;2.70;;;0.70;;
7027;SDS011;3555;53.248;10.336;2022-09-09T14:26:58;2.10;;;0.90;;
7027;SDS011;3555;53.248;10.336;2022-09-09T14:29:24;3.95;;;0.90;;
7027;SDS011;3555;53.248;10.336;2022-09-09T14:31:52;2.53;;;0.77;;
7027;SDS011;3555;53.248;10.336;2022-09-09T14:34:19;3.33;;;1.17;;
7027;SDS011;3555;53.248;10.336;2022-09-09T14:36:45;2.97;;;1.15;;
7027;SDS011;3555;53.248;10.336;2022-09-09T14:39:14;4.18;;;1.13;;
7027;SDS011;3555;53.248;10.336;2022-09-09T14:41:40;1.77;;;0.75;;
7027;SDS011;3555;53.248;10.336;2022-09-09T14:44:07;2.83;;;1.00;;
7027;SDS011;3555;53.248;10.336;2022-09-09T14:46:35;3.63;;;1.00;;
7027;SDS011;3555;53.248;10.336;2022-09-09T14:49:01;1.65;;;0.75;;
7027;SDS011;3555;53.248;10.336;2022-09-09T14:51:28;3.63;;;0.98;;
7027;SDS011;3555;53.248;10.336;2022-09-09T14:53:56;7.00;;;1.10;;
7027;SDS011;3555;53.248;10.336;2022-09-09T14:56:26;2.10;;;1.58;;
7027;SDS011;3555;53.248;10.336;2022-09-09T14:58:55;3.40;;;1.02;;
7027;SDS011;3555;53.248;10.336;2022-09-09T15:01:23;1.85;;;0.93;;
7027;SDS011;3555;53.248;10.336;2022-09-09T15:03:52;2.45;;;1.10;;
7027;SDS011;3555;53.248;10.336;2022-09-09T15:06:23;18.10;;;2.03;;
7027;SDS011;3555;53.248;10.336;2022-09-09T15:08:51;3.20;;;1.08;;
7027;SDS011;3555;53.248;10.336;2022-09-09T15:11:22;1.58;;;0.95;;
7027;SDS011;3555;53.248;10.336;2022-09-09T15:13:53;2.75;;;1.10;;
7027;SDS011;3555;53.248;10.336;2022-09-09T15:16:21;3.97;;;1.08;;
7027;SDS011;3555;53.248;10.336;2022-09-09T15:18:50;4.55;;;1.27;;
7027;SDS011;3555;53.248;10.336;2022-09-09T15:21:20;3.38;;;1.27;;
7027;SDS011;3555;53.248;10.336;2022-09-09T15:23:48;3.92;;;1.40;;
7027;SDS011;3555;53.248;10.336;2022-09-09T15:26:16;6.90;;;1.25;;
7027;SDS011;3555;53.248;10.336;2022-09-09T15:28:45;2.30;;;1.08;;